Latest Coastal Weather Observations for Shark Bay Airport

IDW60701

Issued at 10:02 pm WST Sunday 19 April 2015 (issued every 10 minutes, with the page automatically refreshed every 10 minutes)

About coastal observations | Map of coastal stations | Coastal observations for WA | Marine services | Other Formats
Station Details ID: 006105 Name: SHARK BAY AIRPORT Lat: -25.89 Lon: 113.58 Height: 33.8 m
Data from the previous 72 hours. | See also: Recent months for locations in Western Australia
Date/Time
WST
Temp

°C
Wind Pressure Rain
since 9am
mm
Weather Cloud Vis
km
Sea
Height
m
Swell
Dir
 
Speed
knots
Gust
knots
hPa Trend Height
m
Period
s
Dir
19/10:00pm 21.4 SE 5 6 1018.3 - 0.0 - - - - - - -
19/09:30pm 22.3 SSE 5 7 1018.2 - 0.0 - - - - - - -
19/09:00pm 23.1 SSE 6 8 1018.1 - 0.0 - - - - - - -
19/08:30pm 23.3 SSE 6 8 1018.1 - 0.0 - - - - - - -
19/08:00pm 24.1 SSE 8 10 1017.8 - 0.0 - - - - - - -
19/07:30pm 24.6 S 7 10 1017.6 - 0.0 - - - - - - -
19/07:00pm 24.9 ESE 6 7 1017.3 - 0.0 - - - - - - -
19/06:30pm 25.4 SE 4 7 1016.8 - 0.0 - - - - - - -
19/06:00pm 27.2 SE 6 7 1016.3 - 0.0 - - - - - - -
19/05:30pm 29.3 ESE 8 11 1016.0 - 0.0 - - - - - - -
19/05:00pm 30.0 ESE 9 13 1015.9 - 0.0 - - - - - - -
19/04:30pm 30.5 E 10 14 1015.8 - 0.0 - - - - - - -
19/04:00pm 30.7 ESE 10 15 1015.7 - 0.0 - - - - - - -
19/03:30pm 31.1 E 10 14 1015.7 - 0.0 - - - - - - -
19/03:00pm 31.0 E 12 16 1015.7 - 0.0 - - - - - - -
19/02:30pm 30.6 E 11 16 1015.8 - 0.0 - - - - - - -
19/02:00pm 30.3 E 11 17 1016.0 - 0.0 - - - - - - -
19/01:30pm 30.3 E 11 17 1016.2 - 0.0 - - - - - - -
19/01:00pm 29.7 ENE 13 19 1016.6 - 0.0 - - - - - - -
19/12:30pm 29.5 E 13 22 1017.1 - 0.0 - - - - - - -
19/12:00pm 28.6 E 14 21 1017.4 - 0.0 - - - - - - -
19/11:30am 27.9 ENE 14 19 1017.8 - 0.0 - - - - - - -
19/11:00am 27.7 E 13 18 1018.2 - 0.0 - - - - - - -
19/10:30am 26.7 ENE 15 19 1018.4 - 0.0 - - - - - - -
19/10:00am 26.0 ENE 15 19 1018.6 - 0.0 - - - - - - -
19/09:30am 25.9 ENE 15 19 1018.5 - 0.0 - - - - - - -
19/09:00am 25.0 E 13 18 1018.5 - 0.0 - - - - - - -
19/08:30am 24.1 ENE 11 18 1018.3 - 0.0 - - - - - - -
19/08:00am 23.0 E 9 13 1017.9 - 0.0 - - - - - - -
19/07:30am 21.1 E 8 11 1017.6 - 0.0 - - - - - - -
19/07:00am 19.4 ESE 8 10 1017.2 - 0.0 - - - - - - -
19/06:30am 19.2 ESE 8 9 1016.9 - 0.0 - - - - - - -
19/06:00am 19.4 ESE 7 9 1016.7 - 0.0 - - - - - - -
19/05:30am 19.6 ESE 8 9 1016.5 - 0.0 - - - - - - -
19/05:00am 20.0 ESE 8 11 1016.4 - 0.0 - - - - - - -
19/04:30am 19.9 ESE 8 9 1016.3 - 0.0 - - - - - - -
19/04:00am 20.2 ESE 7 8 1016.4 - 0.0 - - - - - - -
19/03:30am 20.7 ESE 7 9 1016.4 - 0.0 - - - - - - -
19/03:00am 20.2 ESE 6 7 1016.4 - 0.0 - - - - - - -
19/02:30am 20.4 ESE 7 8 1016.5 - 0.0 - - - - - - -
19/02:00am 21.2 ESE 7 8 1016.6 - 0.0 - - - - - - -
19/01:30am 21.8 E 8 11 1016.7 - 0.0 - - - - - - -
19/01:00am 21.7 E 7 8 1016.9 - 0.0 - - - - - - -
19/12:30am 22.4 E 7 9 1016.9 - 0.0 - - - - - - -
19/12:00am 23.2 E 8 10 1016.9 - 0.0 - - - - - - -
 
Date/Time
WST
Temp

°C
Wind Pressure Rain
since 9am
mm
Weather Cloud Vis
km
Sea
Height
m
Swell
Dir
 
Speed
knots
Gust
knots
hPa Trend Height
m
Period
s
Dir
18/11:30pm 23.4 E 9 11 1016.7 - 0.0 - - - - - - -
18/11:00pm 22.6 E 7 9 1016.7 - 0.0 - - - - - - -
18/10:30pm 23.0 ESE 7 9 1016.9 - 0.0 - - - - - - -
18/10:00pm 22.8 SE 6 7 1016.8 - 0.0 - - - - - - -
18/09:30pm 23.2 SSE 6 7 1017.0 - 0.0 - - - - - - -
18/09:00pm 22.8 S 5 7 1017.1 - 0.0 - - - - - - -
18/08:30pm 22.6 S 5 6 1016.7 - 0.0 - - - - - - -
18/08:00pm 22.8 S 5 7 1016.5 - 0.0 - - - - - - -
18/07:30pm 22.7 SSW 5 6 1016.3 - 0.0 - - - - - - -
18/07:00pm 23.2 WSW 5 6 1016.1 - 0.0 - - - - - - -
18/06:30pm 23.7 W 4 5 1015.9 - 0.0 - - - - - - -
18/06:00pm 24.5 W 5 6 1015.5 - 0.0 - - - - - - -
18/05:30pm 25.6 W 6 7 1015.2 - 0.0 - - - - - - -
18/05:00pm 26.8 SSW 4 7 1015.0 - 0.0 - - - - - - -
18/04:30pm 27.4 NE 3 5 1014.9 - 0.0 - - - - - - -
18/04:00pm 27.2 NE 5 10 1015.0 - 0.0 - - - - - - -
18/03:30pm 27.9 NNE 6 9 1014.6 - 0.0 - - - - - - -
18/03:00pm 27.7 NNE 5 8 1014.7 - 0.0 - - - - - - -
18/02:30pm 28.1 NNE 7 10 1014.9 - 0.0 - - - - - - -
18/02:00pm 27.3 NE 8 12 1015.1 - 0.0 - - - - - - -
18/01:30pm 26.9 NE 9 14 1015.4 - 0.0 - - - - - - -
18/01:00pm 27.3 NNE 9 13 1015.7 - 0.0 - - - - - - -
18/12:30pm 27.3 NNE 11 15 1016.0 - 0.0 - - - - - - -
18/12:00pm 26.6 ENE 10 15 1016.2 - 0.0 - - - - - - -
18/11:30am 26.1 ENE 10 15 1016.3 - 0.0 - - - - - - -
18/11:00am 26.3 ENE 13 18 1016.4 - 0.0 - - - - - - -
18/10:30am 25.3 E 12 17 1016.5 - 0.0 - - - - - - -
18/10:00am 25.1 E 13 18 1016.8 - 0.0 - - - - - - -
18/09:30am 23.9 E 12 17 1016.7 - 0.0 - - - - - - -
18/09:00am 23.5 ESE 12 15 1016.6 - 0.0 - - - - - - -
18/08:30am 23.2 ESE 11 15 1016.2 - 0.0 - - - - - - -
18/08:00am 22.2 ESE 11 14 1015.9 - 0.0 - - - - - - -
18/07:30am 21.6 ESE 9 13 1015.7 - 0.0 - - - - - - -
18/07:00am 21.5 ESE 10 12 1015.5 - 0.0 - - - - - - -
18/06:30am 21.4 ESE 9 11 1015.2 - 0.0 - - - - - - -
18/06:00am 21.3 ESE 9 12 1015.0 - 0.0 - - - - - - -
18/05:30am 21.5 ESE 9 12 1014.9 - 0.0 - - - - - - -
18/05:00am 21.6 ESE 9 12 1014.7 - 0.0 - - - - - - -
18/04:30am 21.9 ESE 9 12 1014.5 - 0.0 - - - - - - -
18/04:00am 22.0 ESE 9 12 1014.5 - 0.0 - - - - - - -
18/03:30am 22.0 ESE 9 11 1014.6 - 0.0 - - - - - - -
18/03:00am 21.8 ESE 9 11 1014.7 - 0.0 - - - - - - -
18/02:30am 21.5 ESE 8 10 1014.8 - 0.0 - - - - - - -
18/02:00am 21.5 ESE 8 11 1015.1 - 0.0 - - - - - - -
18/01:30am 21.8 ESE 8 10 1015.3 - 0.0 - - - - - - -
18/01:00am 21.8 ESE 9 11 1015.3 - 0.0 - - - - - - -
18/12:30am 21.7 SE 8 11 1015.3 - 0.0 - - - - - - -
18/12:00am 21.5 SE 7 10 1015.3 - 0.0 - - - - - - -
 
Date/Time
WST
Temp

°C
Wind Pressure Rain
since 9am
mm
Weather Cloud Vis
km
Sea
Height
m
Swell
Dir
 
Speed
knots
Gust
knots
hPa Trend Height
m
Period
s
Dir
17/11:30pm 21.2 SE 7 8 1015.5 - 0.0 - - - - - - -
17/11:00pm 21.6 SSE 7 8 1015.7 - 0.0 - - - - - - -
17/10:30pm 21.7 S 7 9 1015.9 - 0.0 - - - - - - -
17/10:00pm 21.8 SSW 7 9 1016.0 - 0.0 - - - - - - -
17/09:30pm 22.1 SSW 7 10 1016.2 - 0.0 - - - - - - -
17/09:00pm 22.3 S 8 11 1016.3 - 0.0 - - - - - - -
17/08:30pm 22.4 S 9 11 1016.4 - 0.0 - - - - - - -
17/08:00pm 22.3 S 9 12 1015.9 - 0.0 - - - - - - -
17/07:30pm 22.4 S 10 13 1016.0 - 0.0 - - - - - - -
17/07:00pm 22.6 S 11 15 1015.8 - 0.0 - - - - - - -
17/06:30pm 23.0 S 10 14 1015.4 - 0.0 - - - - - - -
17/06:00pm 24.1 S 11 14 1015.1 - 0.0 - - - - - - -
17/05:30pm 26.1 SSW 8 11 1014.7 - 0.0 - - - - - - -
17/05:00pm 27.7 SE 8 11 1014.6 - 0.0 - - - - - - -
17/04:30pm 27.7 SE 7 10 1014.6 - 0.0 - - - - - - -
17/04:00pm 27.7 SE 9 11 1014.7 - 0.0 - - - - - - -
17/03:30pm 28.1 SE 9 13 1014.7 - 0.0 - - - - - - -
17/03:00pm 27.7 ESE 8 12 1015.0 - 0.0 - - - - - - -
17/02:30pm 27.4 SE 9 13 1015.2 - 0.0 - - - - - - -
17/02:00pm 26.9 ESE 9 14 1015.6 - 0.0 - - - - - - -
17/01:30pm 26.5 ESE 11 14 1015.7 - 0.0 - - - - - - -
17/01:00pm 25.7 ESE 12 15 1016.0 - 0.0 - - - - - - -
17/12:30pm 26.0 ESE 11 16 1016.4 - 0.0 - - - - - - -
17/12:00pm 25.8 E 14 19 1016.7 - 0.0 - - - - - - -
17/11:30am 25.4 E 15 21 1017.1 - 0.0 - - - - - - -
17/11:00am 24.8 ESE 14 21 1017.5 - 0.0 - - - - - - -
17/10:30am 24.2 ESE 15 22 1018.0 - 0.0 - - - - - - -
17/10:00am 23.4 E 15 20 1018.3 - 0.0 - - - - - - -
17/09:30am 22.5 ESE 15 21 1018.3 - 0.0 - - - - - - -
17/09:00am 22.1 ESE 15 21 1018.6 - 0.0 - - - - - - -
17/08:30am 21.8 E 13 17 1018.6 - 0.0 - - - - - - -
17/08:00am 21.1 E 13 17 1018.5 - 0.0 - - - - - - -
17/07:30am 20.4 E 11 16 1018.4 - 0.0 - - - - - - -
17/07:00am 20.1 E 11 14 1018.3 - 0.0 - - - - - - -
17/06:30am 20.2 ESE 12 17 1018.1 - 0.0 - - - - - - -
17/06:00am 20.3 ESE 12 17 1017.9 - 0.0 - - - - - - -
17/05:30am 20.4 ESE 11 15 1018.0 - 0.0 - - - - - - -
17/05:00am 20.5 ESE 11 14 1017.7 - 0.0 - - - - - - -
17/04:30am 20.9 ESE 12 18 1017.6 - 0.0 - - - - - - -
17/04:00am 20.8 ESE 11 15 1017.5 - 0.0 - - - - - - -
17/03:30am 21.0 ESE 12 15 1017.7 - 0.0 - - - - - - -
17/03:00am 21.0 ESE 12 14 1017.8 - 0.0 - - - - - - -
17/02:30am 21.0 ESE 11 15 1017.9 - 0.0 - - - - - - -
17/02:00am 21.3 ESE 11 15 1018.3 - 0.0 - - - - - - -
17/01:30am 21.6 ESE 11 16 1018.3 - 0.0 - - - - - - -
17/01:00am 21.8 ESE 11 16 1018.5 - 0.0 - - - - - - -
17/12:30am 22.3 ESE 14 20 1018.6 - 0.0 - - - - - - -
17/12:00am 22.6 ESE 14 22 1018.6 - 0.0 - - - - - - -
 
Date/Time
WST
Temp

°C
Wind Pressure Rain
since 9am
mm
Weather Cloud Vis
km
Sea
Height
m
Swell
Dir
 
Speed
knots
Gust
knots
hPa Trend Height
m
Period
s
Dir
16/11:30pm 22.9 ESE 14 19 1018.7 - 0.0 - - - - - - -
16/11:00pm 23.3 ESE 14 19 1019.0 - 0.0 - - - - - - -
16/10:30pm 23.7 ESE 14 18 1019.1 - 0.0 - - - - - - -

Other Formats:

Comma delimited format used in spreadsheet applications
http://www.bom.gov.au/fwo/IDW60701/IDW60701.95402.axf

JavaScript Object Notation format (JSON) in row-major order
http://www.bom.gov.au/fwo/IDW60701/IDW60701.95402.json